Aeroporto :
LOGIN :

Iscrizione | Disclaimer

   EN    FR    IT 

 










Sommario :    VFR   VFR Marginale   IFR   IFR Intensivo   IFR Molto Intensivo
Visibilità : 
Base nubi : 
>= 8 km
>= 3000ft
5 / 8 km
1000 / 3000 ft
1500m / 5 km
500 / 1000 ft
800 / 1500m
200 / 500 ft
< 800m
< 200 ft
Simboli :   Temporali  Nebbia  Neve Forte  Precipitazioni Forti  Vento > 20 kt
SIGMETs :   Varie  Temporali  Ghiacco  Turbolenza  Onda orograficha  Ceneri Vulcaniche






- Altitudine del aeroporto : 75 ft
- Codice IATA : MRH


EGYM - RAF Marham

ULTIMO METAR :
  • 241150Z 22021KT 7000 RA BKN009 OVC025 10/09 Q1002 NOSIG RMK GRN GRN

METARs OBSOLETI :
  • 241120Z 22021KT 7000 RA BKN009 OVC025 10/09 Q1003 NOSIG RMK GRN GRN
  • 241050Z 22019KT 7000 RA BKN009 OVC025 10/09 Q1003 NOSIG RMK GRN GRN
  • 241020Z 21017KT 7000 RA BKN007 OVC025 10/09 Q1004 NOSIG RMK GRN GRN
  • 240950Z 20018KT 7000 RA BKN007 OVC025 09/08 Q1005 NOSIG RMK GRN GRN
  • 240920Z 19015KT 4000 RA BKN005 OVC025 08/08 Q1005 BECMG 7000 -RA SCT010 RMK YLO1 BECMG GRN

TAF TAF EGYM
Valido dal 24 a 12 ore il 24 a 18 ore UTC


241042Z 2412/2418 21015G25KT 7000 -RA SCT010 BKN020
BECMG 2412/2414 9999 NSW
TEMPO 2412/2418 24025G35KT
BECMG 2413/2416 SCT025



MetMap, La meteo Aeronautica in un colpo d'occhio ! - Copyright ORBIFLY Dicembre 2007 - Disclaimer

ORBIFLY MET'MAP TEAM :

Programmazione e sviluppo : Alexandra Zaïnal
Concezione : Baudouin d'Aumeries
Aiuto per la programmazione : Marc-Olivier Méhu
Supporto tecnico e logistico : Manuel Goepfert
Aiuto per la traduzione : Arnaldo La Scala

Contatto : metmap@orbifly.com




FONTI E CREDITI :

   NOAA